SBOSBO NAP / LIRN
Speedbird OnlineSpeedbird Online NAP / LIRN

Naples International Airport
12:44 25°C

Location Naples, Italy
Latitude: 40.886002
Longitude: 14.2908
Local Time 12:44 on 12 Apr 2024
UTC +2 hours (Europe/Rome)
Currency £1 equals EUR 1.17
METAR LIRN 121020Z 20005KT 140V260 CAVOK 25/10 Q1025 NOSIG
TAF TAF LIRN 120500Z 1206/1306 VRB05KT 9999 FEW040
Weather As Of 12 Apr 2024 12:44
Description Clear sky
Wind 9 km/h from South (200°)
Cloud Cover 0%
Precipitation Rain: none, Snow: none
Sunrise 06:27
Sunset 19:38
NOTAM 46 active NOTAM
Rotations During the last 90 days there were
55 flights from LHR
52 flights to LHR
Lounges Pearl lounge, MAIN TERMINAL
Airport VIP Lounge , Main terminal
Web Airport Website | Wikipedia
Codes IATA: NAP
ICAO: LIRN
Altitude 90 Meter / 294 Feet
Distance 1,601 KM / 995 Miles
from London.
Runways
RunwayLength (m)Surface
062628Asphalt
242628Asphalt
Radio
TypeDescriptionFrequency
APPNAPOLI RADAR124.35
ATISATIS135.975
DIRNAPOLI DIRECTOR120.95
GCCDNAPOLI GND CLNC DEL121.9
OPSUSN BASE OPS118.275
PMSVPMSV METRO34.1
POSTATOC118.275
TWRNAPOLI TWR118.5
Live ATC



Support Speedbird Online

© 2017-2024 Speedbird Online